sensor_id;sensor_type;location;lat;lon;timestamp;pressure;altitude;pressure_sealevel;temperature;humidity
81658;BME280;71057;51.436;6.768;2024-03-08T00:02:11;101431.03;;;3.48;100.00
81658;BME280;71057;51.436;6.768;2024-03-08T00:04:38;101435.84;;;3.44;100.00
81658;BME280;71057;51.436;6.768;2024-03-08T00:07:03;101425.66;;;3.31;100.00
81658;BME280;71057;51.436;6.768;2024-03-08T00:09:28;101432.50;;;3.34;100.00
81658;BME280;71057;51.436;6.768;2024-03-08T00:11:55;101428.63;;;3.20;100.00
81658;BME280;71057;51.436;6.768;2024-03-08T00:14:21;101424.47;;;3.18;100.00
81658;BME280;71057;51.436;6.768;2024-03-08T00:16:47;101427.28;;;3.16;100.00
81658;BME280;71057;51.436;6.768;2024-03-08T00:19:12;101434.63;;;3.14;100.00
81658;BME280;71057;51.436;6.768;2024-03-08T00:21:37;101429.28;;;3.06;100.00
81658;BME280;71057;51.436;6.768;2024-03-08T00:24:03;101430.28;;;3.05;100.00
81658;BME280;71057;51.436;6.768;2024-03-08T00:26:28;101426.75;;;2.96;100.00
81658;BME280;71057;51.436;6.768;2024-03-08T00:28:55;101421.72;;;2.93;100.00
81658;BME280;71057;51.436;6.768;2024-03-08T00:31:21;101420.03;;;2.92;100.00
81658;BME280;71057;51.436;6.768;2024-03-08T00:33:46;101422.88;;;2.91;100.00
81658;BME280;71057;51.436;6.768;2024-03-08T00:36:12;101418.03;;;2.86;100.00
81658;BME280;71057;51.436;6.768;2024-03-08T00:38:37;101426.69;;;2.88;100.00
81658;BME280;71057;51.436;6.768;2024-03-08T00:41:02;101423.53;;;2.93;100.00
81658;BME280;71057;51.436;6.768;2024-03-08T00:43:28;101420.38;;;2.89;100.00
81658;BME280;71057;51.436;6.768;2024-03-08T00:45:55;101417.16;;;2.77;100.00
81658;BME280;71057;51.436;6.768;2024-03-08T00:48:21;101419.47;;;2.72;100.00
81658;BME280;71057;51.436;6.768;2024-03-08T00:50:46;101417.16;;;2.77;100.00
81658;BME280;71057;51.436;6.768;2024-03-08T00:53:12;101419.84;;;2.77;100.00
81658;BME280;71057;51.436;6.768;2024-03-08T00:55:37;101413.66;;;2.77;100.00
81658;BME280;71057;51.436;6.768;2024-03-08T00:58:03;101412.13;;;2.66;100.00
81658;BME280;71057;51.436;6.768;2024-03-08T01:00:29;101415.13;;;2.71;100.00
81658;BME280;71057;51.436;6.768;2024-03-08T01:02:54;101409.59;;;2.65;100.00
81658;BME280;71057;51.436;6.768;2024-03-08T01:05:20;101400.75;;;2.56;100.00
81658;BME280;71057;51.436;6.768;2024-03-08T01:07:45;101404.38;;;2.47;100.00
81658;BME280;71057;51.436;6.768;2024-03-08T01:10:11;101400.72;;;2.48;100.00
81658;BME280;71057;51.436;6.768;2024-03-08T01:12:38;101394.06;;;2.52;100.00
81658;BME280;71057;51.436;6.768;2024-03-08T01:15:03;101384.91;;;2.54;100.00
81658;BME280;71057;51.436;6.768;2024-03-08T01:17:29;101390.56;;;2.51;100.00
81658;BME280;71057;51.436;6.768;2024-03-08T01:19:54;101390.69;;;2.42;100.00
81658;BME280;71057;51.436;6.768;2024-03-08T01:22:19;101387.69;;;2.45;100.00
81658;BME280;71057;51.436;6.768;2024-03-08T01:24:45;101382.03;;;2.40;100.00
81658;BME280;71057;51.436;6.768;2024-03-08T01:27:10;101373.97;;;2.32;100.00
81658;BME280;71057;51.436;6.768;2024-03-08T01:29:37;101381.97;;;2.32;100.00
81658;BME280;71057;51.436;6.768;2024-03-08T01:32:02;101370.06;;;2.18;100.00
81658;BME280;71057;51.436;6.768;2024-03-08T01:34:28;101376.59;;;2.23;100.00
81658;BME280;71057;51.436;6.768;2024-03-08T01:36:54;101364.66;;;2.27;100.00
81658;BME280;71057;51.436;6.768;2024-03-08T01:39:21;101363.97;;;2.25;100.00
81658;BME280;71057;51.436;6.768;2024-03-08T01:41:47;101362.63;;;2.21;100.00
81658;BME280;71057;51.436;6.768;2024-03-08T01:44:12;101350.28;;;2.20;100.00
81658;BME280;71057;51.436;6.768;2024-03-08T01:46:43;101349.81;;;2.25;100.00
81658;BME280;71057;51.436;6.768;2024-03-08T01:49:10;101353.41;;;2.16;100.00
81658;BME280;71057;51.436;6.768;2024-03-08T01:51:36;101352.59;;;2.15;100.00
81658;BME280;71057;51.436;6.768;2024-03-08T01:54:04;101350.69;;;2.08;100.00
81658;BME280;71057;51.436;6.768;2024-03-08T01:56:30;101353.63;;;1.96;100.00
81658;BME280;71057;51.436;6.768;2024-03-08T01:58:57;101349.16;;;1.97;100.00
81658;BME280;71057;51.436;6.768;2024-03-08T02:01:23;101345.75;;;1.87;100.00
81658;BME280;71057;51.436;6.768;2024-03-08T02:03:49;101346.44;;;1.89;100.00
81658;BME280;71057;51.436;6.768;2024-03-08T02:06:14;101338.00;;;1.93;100.00
81658;BME280;71057;51.436;6.768;2024-03-08T02:08:44;101348.13;;;1.90;100.00
81658;BME280;71057;51.436;6.768;2024-03-08T02:11:10;101347.13;;;1.91;100.00
81658;BME280;71057;51.436;6.768;2024-03-08T02:13:35;101339.16;;;1.91;100.00
81658;BME280;71057;51.436;6.768;2024-03-08T02:16:01;101339.75;;;1.85;100.00
81658;BME280;71057;51.436;6.768;2024-03-08T02:18:28;101334.75;;;1.82;100.00
81658;BME280;71057;51.436;6.768;2024-03-08T02:20:55;101336.16;;;1.68;100.00
81658;BME280;71057;51.436;6.768;2024-03-08T02:23:21;101329.88;;;1.77;100.00
81658;BME280;71057;51.436;6.768;2024-03-08T02:25:47;101327.25;;;1.59;100.00
81658;BME280;71057;51.436;6.768;2024-03-08T02:28:13;101328.25;;;1.58;100.00
81658;BME280;71057;51.436;6.768;2024-03-08T02:30:40;101335.25;;;1.59;100.00
81658;BME280;71057;51.436;6.768;2024-03-08T02:33:06;101323.47;;;1.62;100.00
81658;BME280;71057;51.436;6.768;2024-03-08T02:35:32;101320.91;;;1.52;100.00
81658;BME280;71057;51.436;6.768;2024-03-08T02:37:57;101310.94;;;1.54;100.00
81658;BME280;71057;51.436;6.768;2024-03-08T02:40:23;101308.66;;;1.59;100.00
81658;BME280;71057;51.436;6.768;2024-03-08T02:42:48;101307.28;;;1.55;100.00
81658;BME280;71057;51.436;6.768;2024-03-08T02:45:14;101310.94;;;1.54;100.00
81658;BME280;71057;51.436;6.768;2024-03-08T02:47:39;101306.97;;;1.58;100.00
81658;BME280;71057;51.436;6.768;2024-03-08T02:50:05;101308.22;;;1.46;100.00
81658;BME280;71057;51.436;6.768;2024-03-08T02:52:36;101300.91;;;1.48;100.00
81658;BME280;71057;51.436;6.768;2024-03-08T02:55:04;101307.22;;;1.47;100.00
81658;BME280;71057;51.436;6.768;2024-03-08T02:57:33;101306.16;;;1.40;100.00
81658;BME280;71057;51.436;6.768;2024-03-08T02:59:58;101298.13;;;1.32;100.00
81658;BME280;71057;51.436;6.768;2024-03-08T03:02:25;101295.09;;;1.45;100.00
81658;BME280;71057;51.436;6.768;2024-03-08T03:04:51;101289.88;;;1.35;100.00
81658;BME280;71057;51.436;6.768;2024-03-08T03:07:17;101285.47;;;1.26;100.00
81658;BME280;71057;51.436;6.768;2024-03-08T03:09:42;101290.78;;;1.26;100.00
81658;BME280;71057;51.436;6.768;2024-03-08T03:12:08;101285.97;;;1.29;100.00
81658;BME280;71057;51.436;6.768;2024-03-08T03:14:35;101275.00;;;1.24;100.00
81658;BME280;71057;51.436;6.768;2024-03-08T03:17:03;101285.22;;;1.37;100.00
81658;BME280;71057;51.436;6.768;2024-03-08T03:19:29;101285.47;;;1.26;100.00
81658;BME280;71057;51.436;6.768;2024-03-08T03:21:55;101287.66;;;1.30;100.00
81658;BME280;71057;51.436;6.768;2024-03-08T03:24:20;101278.63;;;1.23;100.00
81658;BME280;71057;51.436;6.768;2024-03-08T03:26:46;101281.06;;;1.17;100.00
81658;BME280;71057;51.436;6.768;2024-03-08T03:29:14;101276.91;;;1.14;100.00
81658;BME280;71057;51.436;6.768;2024-03-08T03:31:40;101277.66;;;1.24;100.00
81658;BME280;71057;51.436;6.768;2024-03-08T03:34:06;101271.78;;;1.21;100.00
81658;BME280;71057;51.436;6.768;2024-03-08T03:36:34;101274.91;;;1.16;100.00
81658;BME280;71057;51.436;6.768;2024-03-08T03:39:00;101276.81;;;1.24;100.00
81658;BME280;71057;51.436;6.768;2024-03-08T03:41:41;101268.28;;;1.20;100.00
81658;BME280;71057;51.436;6.768;2024-03-08T03:44:07;101267.78;;;1.17;100.00
81658;BME280;71057;51.436;6.768;2024-03-08T03:46:33;101264.38;;;1.06;100.00
81658;BME280;71057;51.436;6.768;2024-03-08T03:48:58;101261.03;;;1.04;100.00
81658;BME280;71057;51.436;6.768;2024-03-08T03:51:24;101255.84;;;1.03;100.00
81658;BME280;71057;51.436;6.768;2024-03-08T03:53:49;101260.06;;;1.05;100.00
81658;BME280;71057;51.436;6.768;2024-03-08T03:56:15;101260.41;;;1.10;100.00
81658;BME280;71057;51.436;6.768;2024-03-08T03:58:40;101249.78;;;1.10;100.00
81658;BME280;71057;51.436;6.768;2024-03-08T04:01:05;101252.91;;;1.06;100.00
81658;BME280;71057;51.436;6.768;2024-03-08T04:03:31;101250.59;;;1.11;100.00
81658;BME280;71057;51.436;6.768;2024-03-08T04:05:56;101255.09;;;1.10;100.00
81658;BME280;71057;51.436;6.768;2024-03-08T04:08:21;101251.59;;;1.10;100.00
81658;BME280;71057;51.436;6.768;2024-03-08T04:10:48;101256.47;;;1.14;100.00
81658;BME280;71057;51.436;6.768;2024-03-08T04:13:14;101240.06;;;1.01;100.00
81658;BME280;71057;51.436;6.768;2024-03-08T04:15:41;101249.19;;;0.99;100.00
81658;BME280;71057;51.436;6.768;2024-03-08T04:18:06;101241.22;;;0.99;100.00
81658;BME280;71057;51.436;6.768;2024-03-08T04:20:32;101240.91;;;1.02;100.00
81658;BME280;71057;51.436;6.768;2024-03-08T04:22:57;101242.50;;;0.95;100.00
81658;BME280;71057;51.436;6.768;2024-03-08T04:25:22;101240.31;;;0.90;100.00
81658;BME280;71057;51.436;6.768;2024-03-08T04:27:48;101232.94;;;0.84;100.00
81658;BME280;71057;51.436;6.768;2024-03-08T04:30:14;101235.97;;;0.89;100.00
81658;BME280;71057;51.436;6.768;2024-03-08T04:32:40;101237.81;;;0.89;100.00
81658;BME280;71057;51.436;6.768;2024-03-08T04:35:06;101239.91;;;0.85;100.00
81658;BME280;71057;51.436;6.768;2024-03-08T04:37:33;101235.97;;;0.89;100.00
81658;BME280;71057;51.436;6.768;2024-03-08T04:39:59;101229.00;;;0.88;100.00
81658;BME280;71057;51.436;6.768;2024-03-08T04:42:25;101233.69;;;0.94;100.00
81658;BME280;71057;51.436;6.768;2024-03-08T04:44:51;101222.38;;;0.92;100.00
81658;BME280;71057;51.436;6.768;2024-03-08T04:47:18;101219.56;;;0.94;100.00
81658;BME280;71057;51.436;6.768;2024-03-08T04:49:44;101216.06;;;0.93;100.00
81658;BME280;71057;51.436;6.768;2024-03-08T04:52:09;101217.31;;;0.81;100.00
81658;BME280;71057;51.436;6.768;2024-03-08T04:54:34;101217.91;;;0.75;100.00
81658;BME280;71057;51.436;6.768;2024-03-08T04:57:00;101225.13;;;0.65;100.00
81658;BME280;71057;51.436;6.768;2024-03-08T04:59:26;101216.56;;;0.71;100.00
81658;BME280;71057;51.436;6.768;2024-03-08T05:01:52;101215.03;;;0.68;100.00
81658;BME280;71057;51.436;6.768;2024-03-08T05:04:17;101218.66;;;0.85;100.00
81658;BME280;71057;51.436;6.768;2024-03-08T05:06:43;101215.97;;;0.77;100.00
81658;BME280;71057;51.436;6.768;2024-03-08T05:09:08;101215.97;;;0.77;100.00
81658;BME280;71057;51.436;6.768;2024-03-08T05:11:43;101204.41;;;0.86;100.00
81658;BME280;71057;51.436;6.768;2024-03-08T05:14:09;101211.47;;;0.77;100.00
81658;BME280;71057;51.436;6.768;2024-03-08T05:16:35;101195.31;;;0.71;100.00
81658;BME280;71057;51.436;6.768;2024-03-08T05:19:01;101201.00;;;0.76;100.00
81658;BME280;71057;51.436;6.768;2024-03-08T05:21:26;101195.06;;;0.82;100.00
81658;BME280;71057;51.436;6.768;2024-03-08T05:23:51;101191.25;;;0.84;100.00
81658;BME280;71057;51.436;6.768;2024-03-08T05:26:17;101200.03;;;0.77;100.00
81658;BME280;71057;51.436;6.768;2024-03-08T05:28:42;101196.97;;;0.72;100.00
81658;BME280;71057;51.436;6.768;2024-03-08T05:31:08;101193.41;;;0.63;100.00
81658;BME280;71057;51.436;6.768;2024-03-08T05:33:33;101184.59;;;0.63;100.00
81658;BME280;71057;51.436;6.768;2024-03-08T05:36:01;101188.00;;;0.73;100.00
81658;BME280;71057;51.436;6.768;2024-03-08T05:38:27;101186.25;;;0.81;100.00
81658;BME280;71057;51.436;6.768;2024-03-08T05:40:53;101191.06;;;0.78;100.00
81658;BME280;71057;51.436;6.768;2024-03-08T05:43:19;101181.34;;;0.69;100.00
81658;BME280;71057;51.436;6.768;2024-03-08T05:45:47;101193.31;;;0.73;100.00
81658;BME280;71057;51.436;6.768;2024-03-08T05:48:13;101185.28;;;0.65;100.00
81658;BME280;71057;51.436;6.768;2024-03-08T05:50:38;101181.19;;;0.70;100.00
81658;BME280;71057;51.436;6.768;2024-03-08T05:53:04;101181.94;;;0.63;100.00
81658;BME280;71057;51.436;6.768;2024-03-08T05:55:32;101175.88;;;0.52;100.00
81658;BME280;71057;51.436;6.768;2024-03-08T05:58:01;101185.06;;;0.58;100.00
81658;BME280;71057;51.436;6.768;2024-03-08T06:00:26;101176.13;;;0.59;100.00
81658;BME280;71057;51.436;6.768;2024-03-08T06:02:52;101172.47;;;0.60;100.00
81658;BME280;71057;51.436;6.768;2024-03-08T06:05:17;101168.00;;;0.61;100.00
81658;BME280;71057;51.436;6.768;2024-03-08T06:07:42;101165.41;;;0.69;100.00
81658;BME280;71057;51.436;6.768;2024-03-08T06:10:09;101162.59;;;0.70;100.00
81658;BME280;71057;51.436;6.768;2024-03-08T06:12:36;101175.34;;;0.67;100.00
81658;BME280;71057;51.436;6.768;2024-03-08T06:15:06;101163.19;;;0.64;100.00
81658;BME280;71057;51.436;6.768;2024-03-08T06:17:31;101161.69;;;0.79;100.00
81658;BME280;71057;51.436;6.768;2024-03-08T06:19:57;101159.56;;;0.65;100.00
81658;BME280;71057;51.436;6.768;2024-03-08T06:22:22;101154.78;;;0.69;100.00
81658;BME280;71057;51.436;6.768;2024-03-08T06:24:47;101166.75;;;0.73;100.00
81658;BME280;71057;51.436;6.768;2024-03-08T06:27:12;101158.19;;;0.79;100.00
81658;BME280;71057;51.436;6.768;2024-03-08T06:29:39;101152.63;;;0.90;100.00
81658;BME280;71057;51.436;6.768;2024-03-08T06:32:04;101161.31;;;1.00;100.00
81658;BME280;71057;51.436;6.768;2024-03-08T06:34:32;101158.31;;;0.95;100.00
81658;BME280;71057;51.436;6.768;2024-03-08T06:36:58;101156.41;;;1.05;100.00
81658;BME280;71057;51.436;6.768;2024-03-08T06:39:26;101153.34;;;1.00;100.00
81658;BME280;71057;51.436;6.768;2024-03-08T06:41:51;101158.66;;;1.00;100.00
81658;BME280;71057;51.436;6.768;2024-03-08T06:44:16;101158.06;;;1.06;100.00
81658;BME280;71057;51.436;6.768;2024-03-08T06:46:41;101157.91;;;1.08;100.00
81658;BME280;71057;51.436;6.768;2024-03-08T06:49:07;101163.38;;;1.06;100.00
81658;BME280;71057;51.436;6.768;2024-03-08T06:51:34;101158.56;;;1.10;100.00
81658;BME280;71057;51.436;6.768;2024-03-08T06:54:00;101163.44;;;1.14;100.00
81658;BME280;71057;51.436;6.768;2024-03-08T06:56:25;101164.63;;;1.20;100.00
81658;BME280;71057;51.436;6.768;2024-03-08T06:58:50;101163.47;;;1.23;100.00
81658;BME280;71057;51.436;6.768;2024-03-08T07:01:16;101165.16;;;1.24;100.00
81658;BME280;71057;51.436;6.768;2024-03-08T07:03:42;101159.50;;;1.27;100.00
81658;BME280;71057;51.436;6.768;2024-03-08T07:06:11;101163.16;;;1.26;100.00
81658;BME280;71057;51.436;6.768;2024-03-08T07:08:36;101161.06;;;1.37;100.00
81658;BME280;71057;51.436;6.768;2024-03-08T07:11:01;101160.13;;;1.47;100.00
81658;BME280;71057;51.436;6.768;2024-03-08T07:13:27;101165.13;;;1.50;100.00
81658;BME280;71057;51.436;6.768;2024-03-08T07:15:53;101155.34;;;1.58;100.00
81658;BME280;71057;51.436;6.768;2024-03-08T07:18:18;101161.38;;;1.68;100.00
81658;BME280;71057;51.436;6.768;2024-03-08T07:20:44;101158.97;;;1.83;100.00
81658;BME280;71057;51.436;6.768;2024-03-08T07:23:09;101160.13;;;1.89;100.00
81658;BME280;71057;51.436;6.768;2024-03-08T07:25:35;101162.81;;;1.97;100.00
81658;BME280;71057;51.436;6.768;2024-03-08T07:28:01;101152.56;;;2.10;100.00
81658;BME280;71057;51.436;6.768;2024-03-08T07:30:26;101157.22;;;2.16;100.00
81658;BME280;71057;51.436;6.768;2024-03-08T07:33:11;101148.25;;;2.25;100.00
81658;BME280;71057;51.436;6.768;2024-03-08T07:35:39;101139.94;;;2.28;100.00
81658;BME280;71057;51.436;6.768;2024-03-08T07:38:08;101143.78;;;2.34;100.00
81658;BME280;71057;51.436;6.768;2024-03-08T07:40:38;101146.25;;;2.36;100.00
81658;BME280;71057;51.436;6.768;2024-03-08T07:43:08;101147.28;;;2.43;100.00
81658;BME280;71057;51.436;6.768;2024-03-08T07:45:33;101135.63;;;2.44;100.00
81658;BME280;71057;51.436;6.768;2024-03-08T07:47:59;101136.47;;;2.52;100.00
81658;BME280;71057;51.436;6.768;2024-03-08T07:50:24;101138.31;;;2.60;100.00
81658;BME280;71057;51.436;6.768;2024-03-08T07:52:50;101132.31;;;2.66;100.00
81658;BME280;71057;51.436;6.768;2024-03-08T07:55:16;101126.66;;;2.77;100.00
81658;BME280;71057;51.436;6.768;2024-03-08T07:57:41;101126.47;;;2.87;100.00
81658;BME280;71057;51.436;6.768;2024-03-08T08:00:08;101116.13;;;3.00;100.00
81658;BME280;71057;51.436;6.768;2024-03-08T08:02:36;101108.75;;;3.10;100.00
81658;BME280;71057;51.436;6.768;2024-03-08T08:05:02;101114.56;;;3.22;100.00
81658;BME280;71057;51.436;6.768;2024-03-08T08:07:28;101107.06;;;3.26;100.00
81658;BME280;71057;51.436;6.768;2024-03-08T08:09:54;101099.03;;;3.34;100.00
81658;BME280;71057;51.436;6.768;2024-03-08T08:12:19;101107.84;;;3.42;100.00
81658;BME280;71057;51.436;6.768;2024-03-08T08:14:45;101091.28;;;3.55;100.00
81658;BME280;71057;51.436;6.768;2024-03-08T08:17:11;101099.88;;;3.73;100.00
81658;BME280;71057;51.436;6.768;2024-03-08T08:19:37;101094.59;;;3.88;100.00
81658;BME280;71057;51.436;6.768;2024-03-08T08:22:03;101092.22;;;4.01;100.00
81658;BME280;71057;51.436;6.768;2024-03-08T08:24:28;101084.16;;;4.10;100.00
81658;BME280;71057;51.436;6.768;2024-03-08T08:26:54;101082.03;;;4.28;100.00
81658;BME280;71057;51.436;6.768;2024-03-08T08:29:19;101085.63;;;4.35;100.00
81658;BME280;71057;51.436;6.768;2024-03-08T08:31:45;101078.19;;;4.45;100.00
81658;BME280;71057;51.436;6.768;2024-03-08T08:34:11;101069.41;;;4.59;100.00
81658;BME280;71057;51.436;6.768;2024-03-08T08:36:37;101068.44;;;4.75;100.00
81658;BME280;71057;51.436;6.768;2024-03-08T08:39:04;101061.41;;;4.89;100.00
81658;BME280;71057;51.436;6.768;2024-03-08T08:41:30;101054.34;;;4.96;100.00
81658;BME280;71057;51.436;6.768;2024-03-08T08:43:57;101050.19;;;5.08;100.00
81658;BME280;71057;51.436;6.768;2024-03-08T08:46:22;101051.75;;;5.18;100.00
81658;BME280;71057;51.436;6.768;2024-03-08T08:48:47;101045.47;;;5.25;100.00
81658;BME280;71057;51.436;6.768;2024-03-08T08:51:13;101043.78;;;5.39;100.00
81658;BME280;71057;51.436;6.768;2024-03-08T08:53:41;101032.88;;;5.55;100.00
81658;BME280;71057;51.436;6.768;2024-03-08T08:56:12;101037.00;;;5.72;100.00
81658;BME280;71057;51.436;6.768;2024-03-08T08:58:41;101025.34;;;5.80;100.00
81658;BME280;71057;51.436;6.768;2024-03-08T09:01:08;101029.66;;;5.96;100.00
81658;BME280;71057;51.436;6.768;2024-03-08T09:03:35;101016.63;;;6.14;100.00
81658;BME280;71057;51.436;6.768;2024-03-08T09:06:02;101007.25;;;6.25;100.00
81658;BME280;71057;51.436;6.768;2024-03-08T09:08:28;101016.56;;;6.29;100.00
81658;BME280;71057;51.436;6.768;2024-03-08T09:10:53;101017.56;;;6.49;100.00
81658;BME280;71057;51.436;6.768;2024-03-08T09:13:19;101006.50;;;6.59;100.00
81658;BME280;71057;51.436;6.768;2024-03-08T09:15:44;101015.38;;;6.59;100.00
81658;BME280;71057;51.436;6.768;2024-03-08T09:18:10;101003.31;;;6.77;100.00
81658;BME280;71057;51.436;6.768;2024-03-08T09:20:35;101004.41;;;6.82;100.00
81658;BME280;71057;51.436;6.768;2024-03-08T09:23:02;101005.72;;;6.93;100.00
81658;BME280;71057;51.436;6.768;2024-03-08T09:25:27;101003.44;;;6.97;100.00
81658;BME280;71057;51.436;6.768;2024-03-08T09:27:53;101004.06;;;6.99;100.00
81658;BME280;71057;51.436;6.768;2024-03-08T09:30:19;100994.44;;;7.11;100.00
81658;BME280;71057;51.436;6.768;2024-03-08T09:32:46;101002.09;;;7.14;100.00
81658;BME280;71057;51.436;6.768;2024-03-08T09:35:12;100985.59;;;7.17;100.00
81658;BME280;71057;51.436;6.768;2024-03-08T09:37:37;100995.53;;;7.23;100.00
81658;BME280;71057;51.436;6.768;2024-03-08T09:40:03;100993.88;;;7.29;100.00
81658;BME280;71057;51.436;6.768;2024-03-08T09:42:35;100981.50;;;7.28;100.00
81658;BME280;71057;51.436;6.768;2024-03-08T09:45:10;100978.22;;;7.32;100.00
81658;BME280;71057;51.436;6.768;2024-03-08T09:47:37;100975.75;;;7.37;100.00
81658;BME280;71057;51.436;6.768;2024-03-08T09:50:05;100970.00;;;7.40;100.00
81658;BME280;71057;51.436;6.768;2024-03-08T09:52:35;100962.19;;;7.52;100.00
81658;BME280;71057;51.436;6.768;2024-03-08T09:55:01;100963.44;;;7.63;100.00
81658;BME280;71057;51.436;6.768;2024-03-08T09:57:26;100968.00;;;7.76;100.00
81658;BME280;71057;51.436;6.768;2024-03-08T09:59:52;100959.75;;;7.77;100.00
81658;BME280;71057;51.436;6.768;2024-03-08T10:02:18;100938.06;;;7.92;100.00
81658;BME280;71057;51.436;6.768;2024-03-08T10:04:43;100955.03;;;8.06;100.00
81658;BME280;71057;51.436;6.768;2024-03-08T10:07:11;100945.31;;;8.05;100.00
81658;BME280;71057;51.436;6.768;2024-03-08T10:09:38;100946.13;;;8.12;100.00
81658;BME280;71057;51.436;6.768;2024-03-08T10:12:04;100943.03;;;8.15;100.00
81658;BME280;71057;51.436;6.768;2024-03-08T10:14:30;100944.06;;;8.14;100.00
81658;BME280;71057;51.436;6.768;2024-03-08T10:16:57;100925.06;;;8.35;100.00
81658;BME280;71057;51.436;6.768;2024-03-08T10:19:25;100930.84;;;8.39;100.00
81658;BME280;71057;51.436;6.768;2024-03-08T10:21:51;100927.13;;;8.46;100.00
81658;BME280;71057;51.436;6.768;2024-03-08T10:24:22;100921.09;;;8.57;99.10
81658;BME280;71057;51.436;6.768;2024-03-08T10:26:51;100921.69;;;8.73;99.11
81658;BME280;71057;51.436;6.768;2024-03-08T10:29:16;100922.91;;;8.77;96.68
81658;BME280;71057;51.436;6.768;2024-03-08T10:31:43;100909.91;;;8.67;96.40
81658;BME280;71057;51.436;6.768;2024-03-08T10:34:11;100909.66;;;8.82;96.28
81658;BME280;71057;51.436;6.768;2024-03-08T10:36:39;100916.63;;;8.96;94.99
81658;BME280;71057;51.436;6.768;2024-03-08T10:39:15;100901.28;;;9.10;93.79
81658;BME280;71057;51.436;6.768;2024-03-08T10:41:58;100896.88;;;9.15;93.21
81658;BME280;71057;51.436;6.768;2024-03-08T10:44:32;100894.72;;;9.31;91.47
81658;BME280;71057;51.436;6.768;2024-03-08T10:47:03;100888.56;;;9.24;90.82
81658;BME280;71057;51.436;6.768;2024-03-08T10:49:50;100883.34;;;9.29;90.69
81658;BME280;71057;51.436;6.768;2024-03-08T10:52:16;100881.22;;;9.37;88.92
81658;BME280;71057;51.436;6.768;2024-03-08T10:54:43;100877.09;;;9.35;89.34
81658;BME280;71057;51.436;6.768;2024-03-08T10:57:10;100873.69;;;9.46;88.98
81658;BME280;71057;51.436;6.768;2024-03-08T10:59:37;100863.66;;;9.60;88.15
81658;BME280;71057;51.436;6.768;2024-03-08T11:02:04;100865.69;;;9.64;87.60
81658;BME280;71057;51.436;6.768;2024-03-08T11:04:31;100856.53;;;9.72;86.93
81658;BME280;71057;51.436;6.768;2024-03-08T11:07:02;100859.19;;;9.79;85.48
81658;BME280;71057;51.436;6.768;2024-03-08T11:09:31;100847.22;;;9.93;84.84
81658;BME280;71057;51.436;6.768;2024-03-08T11:14:55;100837.97;;;10.07;85.21
81658;BME280;71057;51.436;6.768;2024-03-08T11:17:25;100842.91;;;10.10;83.46
81658;BME280;71057;51.436;6.768;2024-03-08T11:19:55;100841.81;;;10.18;83.03
81658;BME280;71057;51.436;6.768;2024-03-08T11:22:28;100834.09;;;10.21;83.25
81658;BME280;71057;51.436;6.768;2024-03-08T11:25:02;100829.94;;;10.25;81.42
81658;BME280;71057;51.436;6.768;2024-03-08T11:27:30;100814.06;;;10.11;81.48
81658;BME280;71057;51.436;6.768;2024-03-08T11:30:00;100813.56;;;10.20;82.71
81658;BME280;71057;51.436;6.768;2024-03-08T11:32:35;100821.84;;;10.25;80.25
81658;BME280;71057;51.436;6.768;2024-03-08T11:35:02;100811.38;;;10.36;77.60
81658;BME280;71057;51.436;6.768;2024-03-08T11:37:33;100797.94;;;10.47;77.84
81658;BME280;71057;51.436;6.768;2024-03-08T11:40:00;100805.81;;;10.49;79.27
81658;BME280;71057;51.436;6.768;2024-03-08T11:42:27;100801.81;;;10.51;80.31
81658;BME280;71057;51.436;6.768;2024-03-08T11:44:52;100806.50;;;10.44;80.77
81658;BME280;71057;51.436;6.768;2024-03-08T11:47:18;100794.59;;;10.34;82.57
81658;BME280;71057;51.436;6.768;2024-03-08T11:49:44;100790.22;;;10.33;83.20
81658;BME280;71057;51.436;6.768;2024-03-08T11:52:13;100793.03;;;10.19;84.03
81658;BME280;71057;51.436;6.768;2024-03-08T11:54:40;100786.16;;;10.05;87.10
81658;BME280;71057;51.436;6.768;2024-03-08T11:57:05;100777.09;;;10.18;87.34
81658;BME280;71057;51.436;6.768;2024-03-08T11:59:30;100776.34;;;10.29;86.67
81658;BME280;71057;51.436;6.768;2024-03-08T12:02:06;100769.09;;;10.29;87.22
81658;BME280;71057;51.436;6.768;2024-03-08T12:04:32;100762.41;;;10.32;86.27
81658;BME280;71057;51.436;6.768;2024-03-08T12:07:01;100759.50;;;10.34;86.16
81658;BME280;71057;51.436;6.768;2024-03-08T12:09:28;100755.66;;;10.23;87.14
81658;BME280;71057;51.436;6.768;2024-03-08T12:11:53;100751.56;;;10.39;86.25
81658;BME280;71057;51.436;6.768;2024-03-08T12:14:19;100748.72;;;10.52;84.78
81658;BME280;71057;51.436;6.768;2024-03-08T12:16:45;100740.00;;;10.50;84.39
81658;BME280;71057;51.436;6.768;2024-03-08T12:19:11;100745.66;;;10.60;83.32
81658;BME280;71057;51.436;6.768;2024-03-08T12:21:37;100741.31;;;10.59;82.74
81658;BME280;71057;51.436;6.768;2024-03-08T12:24:07;100733.97;;;10.66;82.67
81658;BME280;71057;51.436;6.768;2024-03-08T12:26:37;100720.97;;;10.75;80.59
81658;BME280;71057;51.436;6.768;2024-03-08T12:29:19;100730.63;;;10.82;79.39
81658;BME280;71057;51.436;6.768;2024-03-08T12:31:51;100719.69;;;10.77;80.63
81658;BME280;71057;51.436;6.768;2024-03-08T12:34:17;100706.34;;;10.82;80.45
81658;BME280;71057;51.436;6.768;2024-03-08T12:36:47;100699.72;;;10.78;81.99
81658;BME280;71057;51.436;6.768;2024-03-08T12:39:16;100698.59;;;10.98;81.31
81658;BME280;71057;51.436;6.768;2024-03-08T12:41:42;100702.75;;;11.12;79.27
81658;BME280;71057;51.436;6.768;2024-03-08T12:44:08;100693.75;;;11.18;77.51
81658;BME280;71057;51.436;6.768;2024-03-08T12:46:36;100695.63;;;11.29;76.85
81658;BME280;71057;51.436;6.768;2024-03-08T12:49:01;100689.75;;;11.32;75.76
81658;BME280;71057;51.436;6.768;2024-03-08T12:51:29;100687.75;;;11.39;76.16